Portada
METAR-TAF:

METAR-TAF

Aeroports :

Ipiales, Colòmbia

latitud: 00-49N, longitud: 077-38W, altitud: 2961 m

Observació

L'informe es va fer fa 46 minuts, a les 17:00 UTC
Vent 5 kt del Est
Temperatura 15°C
Humitat 77%
Pressió 1029 hPa
Visibilitat 10 km o més
Cel ennuvolat a una alçada de 1600 ft
xàfecs en les proximitats

METAR: SKIP 311700Z 10005KT 9999 VCSH BKN016 15/11 A3038 RMK VCSH/E

Hora: 12:46 (17:46 UTC)


TAF: manca

Observacions i pronòstics meteorològics de més de 4000 aeroports (METAR i TAF).

Les estacions disponibles són els punts grocs i vermells al mapa.

Posi el ratolí al punt desitjat per veure el nom de l'estació.

Feu clic per veure les observacions i els pronòstics meteorològics.

Per canviar el mapa: feu clic els botons verds amb una creu de color negre per apropar; al botó verd amb un guió per allunyar la imatge; o en les fletxes verdes per a mapes adjacents.


METAR-TAF: